PWSweather.com
Personal Weather Stations
Station Observations
STWO1
East Side, Stillwater, OK 74075

East SideStillwater, OK 74075

Lat: 36.1242949, Lon: -97.044042

Elevation: 942

Station Type: Davis VP2

http://stillwaterweather.com

High Low Average
Temperature 77.2°F25.1°F 39.9°F4.4°F 55.0°F12.8°F
Dew Point 59.2°F15.1°F 28.6°F-1.9°F 40.0°F4.4°F
Winds 18.4 mph NW29.6 mph NW Calm Calm 7.3 mph 11.7 mph
Wind Gusts 28.8 mph46.3 mph -- 11.8 mph19.0 mph
Humidity 73% 41% 58%
Pressure 30.28 in1025.40 in 29.40 in995.60 in -
Precipitation 0.00 in0.00 in - -
Hour Temp Dew Point Humidity Winds Wind Gusts Pressure Precip Precip Rate Daily Precip Total
12:00 AM 76.0°F24.4°C 59.2°F15.1°C 56% 5.8 mph SW9.3 kmh SW 8.1 mph13.0 kmh 29.43 in996.6 mb - 0.00 in0.0 mm 0.00 in0.0 mm
12:10 AM 76.2°F24.6°C 58.3°F14.6°C 54% 5.8 mph SW9.3 kmh SW 15.0 mph24.1 kmh 29.43 in996.6 mb - 0.00 in0.0 mm 0.00 in0.0 mm
12:20 AM 76.4°F24.7°C 58.0°F14.4°C 53% 5.8 mph SW9.3 kmh SW 10.4 mph16.7 kmh 29.42 in996.3 mb - 0.00 in0.0 mm 0.00 in0.0 mm
12:30 AM 76.7°F24.8°C 57.2°F14.0°C 51% 9.2 mph SW14.8 kmh SW 12.7 mph20.4 kmh 29.42 in996.3 mb - 0.00 in0.0 mm 0.00 in0.0 mm
12:40 AM 77.2°F25.1°C 56.0°F13.3°C 48% 8.1 mph SW13.0 kmh SW 15.0 mph24.1 kmh 29.42 in996.3 mb - 0.00 in0.0 mm 0.00 in0.0 mm
12:50 AM 77.2°F25.1°C 55.4°F13.0°C 47% 6.9 mph SW11.1 kmh SW 13.8 mph22.2 kmh 29.41 in995.9 mb - 0.00 in0.0 mm 0.00 in0.0 mm
01:00 AM 76.9°F24.9°C 55.1°F12.8°C 47% 5.8 mph SW9.3 kmh SW 5.8 mph9.3 kmh 29.41 in995.9 mb - 0.00 in0.0 mm 0.00 in0.0 mm
01:10 AM 77.0°F25.0°C 54.6°F12.6°C 46% 6.9 mph SW11.1 kmh SW 11.5 mph18.5 kmh 29.40 in995.6 mb - 0.00 in0.0 mm 0.00 in0.0 mm
01:20 AM 76.9°F24.9°C 54.0°F12.2°C 45% 6.9 mph SW11.1 kmh SW 12.7 mph20.4 kmh 29.40 in995.6 mb - 0.00 in0.0 mm 0.00 in0.0 mm
01:30 AM 76.7°F24.8°C 53.8°F12.1°C 45% 4.6 mph SW7.4 kmh SW 11.5 mph18.5 kmh 29.40 in995.6 mb - 0.00 in0.0 mm 0.00 in0.0 mm
01:40 AM 76.6°F24.8°C 54.2°F12.3°C 46% 5.8 mph SW9.3 kmh SW 5.8 mph9.3 kmh 29.40 in995.6 mb - 0.00 in0.0 mm 0.00 in0.0 mm
01:50 AM 76.0°F24.4°C 54.3°F12.4°C 47% 4.6 mph SW7.4 kmh SW 6.9 mph11.1 kmh 29.41 in995.9 mb - 0.00 in0.0 mm 0.00 in0.0 mm
02:00 AM 75.5°F24.2°C 53.8°F12.1°C 47% 5.8 mph SW9.3 kmh SW 6.9 mph11.1 kmh 29.41 in995.9 mb - 0.00 in0.0 mm 0.00 in0.0 mm
02:10 AM 75.1°F23.9°C 54.1°F12.3°C 48% 4.6 mph SW7.4 kmh SW 8.1 mph13.0 kmh 29.41 in995.9 mb - 0.00 in0.0 mm 0.00 in0.0 mm
02:20 AM 74.9°F23.8°C 53.9°F12.2°C 48% 5.8 mph WSW9.3 kmh WSW 4.6 mph7.4 kmh 29.41 in995.9 mb - 0.00 in0.0 mm 0.00 in0.0 mm
02:30 AM 74.8°F23.8°C 53.2°F11.8°C 47% 4.6 mph SW7.4 kmh SW 6.9 mph11.1 kmh 29.41 in995.9 mb - 0.00 in0.0 mm 0.00 in0.0 mm
02:40 AM 74.5°F23.6°C 52.9°F11.6°C 47% 4.6 mph SW7.4 kmh SW 5.8 mph9.3 kmh 29.42 in996.3 mb - 0.00 in0.0 mm 0.00 in0.0 mm
02:50 AM 74.3°F23.5°C 52.8°F11.6°C 47% 3.5 mph WSW5.6 kmh WSW 3.5 mph5.6 kmh 29.42 in996.3 mb - 0.00 in0.0 mm 0.00 in0.0 mm
03:00 AM 74.0°F23.3°C 51.9°F11.1°C 46% 4.6 mph SW7.4 kmh SW 9.2 mph14.8 kmh 29.43 in996.6 mb - 0.00 in0.0 mm 0.00 in0.0 mm
03:10 AM 73.9°F23.3°C 51.9°F11.1°C 46% 5.8 mph W9.3 kmh W 10.4 mph16.7 kmh 29.44 in997.0 mb - 0.00 in0.0 mm 0.00 in0.0 mm
03:20 AM 73.8°F23.2°C 51.7°F10.9°C 46% 3.5 mph W5.6 kmh W 9.2 mph14.8 kmh 29.45 in997.3 mb - 0.00 in0.0 mm 0.00 in0.0 mm
03:40 AM 70.7°F21.5°C 45.8°F7.7°C 41% 11.5 mph NW18.5 kmh NW 11.5 mph18.5 kmh 29.48 in998.3 mb - 0.00 in0.0 mm 0.00 in0.0 mm
03:50 AM 65.2°F18.4°C 46.1°F7.8°C 50% 13.8 mph NW22.2 kmh NW 19.6 mph31.5 kmh 29.50 in999.0 mb - 0.00 in0.0 mm 0.00 in0.0 mm
04:00 AM 60.5°F15.8°C 47.4°F8.6°C 62% 10.4 mph NNW16.7 kmh NNW 15.0 mph24.1 kmh 29.51 in999.3 mb - 0.00 in0.0 mm 0.00 in0.0 mm
04:10 AM 57.7°F14.3°C 47.2°F8.4°C 68% 5.8 mph NNW9.3 kmh NNW 16.1 mph25.9 kmh 29.53 in1000.0 mb - 0.00 in0.0 mm 0.00 in0.0 mm
04:20 AM 56.1°F13.4°C 45.7°F7.6°C 68% 5.8 mph NW9.3 kmh NW 16.1 mph25.9 kmh 29.55 in1000.7 mb - 0.00 in0.0 mm 0.00 in0.0 mm
04:30 AM 54.1°F12.3°C 43.4°F6.3°C 67% 10.4 mph NW16.7 kmh NW 17.3 mph27.8 kmh 29.56 in1001.0 mb - 0.00 in0.0 mm 0.00 in0.0 mm
04:40 AM 53.0°F11.7°C 42.7°F5.9°C 68% 9.2 mph NNW14.8 kmh NNW 17.3 mph27.8 kmh 29.57 in1001.4 mb - 0.00 in0.0 mm 0.00 in0.0 mm
04:50 AM 52.4°F11.3°C 42.9°F6.1°C 70% 11.5 mph NW18.5 kmh NW 15.0 mph24.1 kmh 29.59 in1002.0 mb - 0.00 in0.0 mm 0.00 in0.0 mm
05:00 AM 52.3°F11.3°C 43.5°F6.4°C 72% 10.4 mph NNW16.7 kmh NNW 15.0 mph24.1 kmh 29.59 in1002.0 mb - 0.00 in0.0 mm 0.00 in0.0 mm
05:10 AM 52.4°F11.3°C 44.0°F6.7°C 73% 9.2 mph NW14.8 kmh NW 15.0 mph24.1 kmh 29.60 in1002.4 mb - 0.00 in0.0 mm 0.00 in0.0 mm
05:20 AM 52.7°F11.5°C 43.9°F6.6°C 72% 8.1 mph NNW13.0 kmh NNW 20.7 mph33.3 kmh 29.61 in1002.7 mb - 0.00 in0.0 mm 0.00 in0.0 mm
05:30 AM 53.0°F11.7°C 44.2°F6.8°C 72% 11.5 mph NW18.5 kmh NW 16.1 mph25.9 kmh 29.62 in1003.0 mb - 0.00 in0.0 mm 0.00 in0.0 mm
05:40 AM 53.3°F11.8°C 44.1°F6.7°C 71% 9.2 mph NW14.8 kmh NW 13.8 mph22.2 kmh 29.62 in1003.0 mb - 0.00 in0.0 mm 0.00 in0.0 mm
05:50 AM 53.6°F12.0°C 44.0°F6.7°C 70% 13.8 mph NW22.2 kmh NW 18.4 mph29.6 kmh 29.64 in1003.7 mb - 0.00 in0.0 mm 0.00 in0.0 mm
06:00 AM 53.8°F12.1°C 44.2°F6.8°C 70% 10.4 mph NW16.7 kmh NW 16.1 mph25.9 kmh 29.64 in1003.7 mb - 0.00 in0.0 mm 0.00 in0.0 mm
06:10 AM 53.8°F12.1°C 43.8°F6.6°C 69% 13.8 mph NW22.2 kmh NW 19.6 mph31.5 kmh 29.65 in1004.1 mb - 0.00 in0.0 mm 0.00 in0.0 mm
06:20 AM 53.5°F11.9°C 43.6°F6.4°C 69% 10.4 mph NW16.7 kmh NW 15.0 mph24.1 kmh 29.67 in1004.7 mb - 0.00 in0.0 mm 0.00 in0.0 mm
06:30 AM 53.2°F11.8°C 43.7°F6.5°C 70% 8.1 mph NNW13.0 kmh NNW 12.7 mph20.4 kmh 29.68 in1005.1 mb - 0.00 in0.0 mm 0.00 in0.0 mm
06:40 AM 53.1°F11.7°C 43.6°F6.4°C 70% 10.4 mph NNW16.7 kmh NNW 25.3 mph40.7 kmh 29.70 in1005.8 mb - 0.00 in0.0 mm 0.00 in0.0 mm
06:50 AM 53.1°F11.7°C 43.9°F6.6°C 71% 10.4 mph N16.7 kmh N 16.1 mph25.9 kmh 29.72 in1006.4 mb - 0.00 in0.0 mm 0.00 in0.0 mm
07:00 AM 53.2°F11.8°C 44.4°F6.9°C 72% 12.7 mph NW20.4 kmh NW 19.6 mph31.5 kmh 29.73 in1006.8 mb - 0.00 in0.0 mm 0.00 in0.0 mm
07:10 AM 53.3°F11.8°C 44.1°F6.7°C 71% 5.8 mph NW9.3 kmh NW 21.9 mph35.2 kmh 29.74 in1007.1 mb - 0.00 in0.0 mm 0.00 in0.0 mm
07:20 AM 53.4°F11.9°C 43.8°F6.6°C 70% 9.2 mph NW14.8 kmh NW 15.0 mph24.1 kmh 29.75 in1007.5 mb - 0.00 in0.0 mm 0.00 in0.0 mm
07:30 AM 53.6°F12.0°C 43.3°F6.3°C 68% 15.0 mph NNW24.1 kmh NNW 23.0 mph37.0 kmh 29.77 in1008.1 mb - 0.00 in0.0 mm 0.00 in0.0 mm
07:40 AM 53.6°F12.0°C 42.9°F6.1°C 67% 11.5 mph NW18.5 kmh NW 16.1 mph25.9 kmh 29.79 in1008.8 mb - 0.00 in0.0 mm 0.00 in0.0 mm
07:50 AM 53.4°F11.9°C 42.7°F5.9°C 67% 10.4 mph NW16.7 kmh NW 17.3 mph27.8 kmh 29.80 in1009.1 mb - 0.00 in0.0 mm 0.00 in0.0 mm
08:00 AM 53.1°F11.7°C 42.8°F6.0°C 68% 11.5 mph NNW18.5 kmh NNW 18.4 mph29.6 kmh 29.81 in1009.5 mb - 0.00 in0.0 mm 0.00 in0.0 mm
08:10 AM 53.0°F11.7°C 42.7°F5.9°C 68% 16.1 mph NNW25.9 kmh NNW 20.7 mph33.3 kmh 29.82 in1009.8 mb - 0.00 in0.0 mm 0.00 in0.0 mm
08:20 AM 53.0°F11.7°C 42.7°F5.9°C 68% 10.4 mph NNW16.7 kmh NNW 15.0 mph24.1 kmh 29.83 in1010.2 mb - 0.00 in0.0 mm 0.00 in0.0 mm
08:30 AM 53.2°F11.8°C 43.3°F6.3°C 69% 11.5 mph N18.5 kmh N 18.4 mph29.6 kmh 29.84 in1010.5 mb - 0.00 in0.0 mm 0.00 in0.0 mm
08:40 AM 53.4°F11.9°C 43.5°F6.4°C 69% 12.7 mph NNW20.4 kmh NNW 13.8 mph22.2 kmh 29.84 in1010.5 mb - 0.00 in0.0 mm 0.00 in0.0 mm
08:50 AM 53.6°F12.0°C 43.7°F6.5°C 69% 13.8 mph NW22.2 kmh NW 21.9 mph35.2 kmh 29.86 in1011.2 mb - 0.00 in0.0 mm 0.00 in0.0 mm
09:00 AM 53.3°F11.8°C 43.4°F6.3°C 69% 16.1 mph NNW25.9 kmh NNW 24.2 mph38.9 kmh 29.87 in1011.5 mb - 0.00 in0.0 mm 0.00 in0.0 mm
09:10 AM 53.1°F11.7°C 43.6°F6.4°C 70% 13.8 mph NNW22.2 kmh NNW 19.6 mph31.5 kmh 29.88 in1011.9 mb - 0.00 in0.0 mm 0.00 in0.0 mm
09:20 AM 53.1°F11.7°C 43.6°F6.4°C 70% 10.4 mph N16.7 kmh N 11.5 mph18.5 kmh 29.89 in1012.2 mb - 0.00 in0.0 mm 0.00 in0.0 mm
09:30 AM 53.0°F11.7°C 43.5°F6.4°C 70% 10.4 mph NW16.7 kmh NW 19.6 mph31.5 kmh 29.90 in1012.5 mb - 0.00 in0.0 mm 0.00 in0.0 mm
09:40 AM 52.9°F11.6°C 43.0°F6.1°C 69% 10.4 mph NNW16.7 kmh NNW 16.1 mph25.9 kmh 29.91 in1012.9 mb - 0.00 in0.0 mm 0.00 in0.0 mm
09:50 AM 52.4°F11.3°C 42.9°F6.1°C 70% 8.1 mph NNW13.0 kmh NNW 13.8 mph22.2 kmh 29.93 in1013.5 mb - 0.00 in0.0 mm 0.00 in0.0 mm
10:00 AM 52.1°F11.2°C 42.2°F5.7°C 69% 12.7 mph NNW20.4 kmh NNW 21.9 mph35.2 kmh 29.94 in1013.9 mb - 0.00 in0.0 mm 0.00 in0.0 mm
10:10 AM 52.0°F11.1°C 41.8°F5.4°C 68% 8.1 mph NNW13.0 kmh NNW 16.1 mph25.9 kmh 29.96 in1014.6 mb - 0.00 in0.0 mm 0.00 in0.0 mm
10:20 AM 51.4°F10.8°C 41.5°F5.3°C 69% 16.1 mph NW25.9 kmh NW 28.8 mph46.3 kmh 29.97 in1014.9 mb - 0.00 in0.0 mm 0.00 in0.0 mm
10:30 AM 50.9°F10.5°C 41.1°F5.1°C 69% 13.8 mph NNW22.2 kmh NNW 19.6 mph31.5 kmh 29.98 in1015.2 mb - 0.00 in0.0 mm 0.00 in0.0 mm
10:40 AM 50.6°F10.3°C 40.4°F4.7°C 68% 16.1 mph NNW25.9 kmh NNW 20.7 mph33.3 kmh 30.00 in1015.9 mb - 0.00 in0.0 mm 0.00 in0.0 mm
10:50 AM 50.3°F10.2°C 39.4°F4.1°C 66% 18.4 mph NW29.6 kmh NW 27.6 mph44.4 kmh 30.01 in1016.3 mb - 0.00 in0.0 mm 0.00 in0.0 mm
11:00 AM 50.2°F10.1°C 39.7°F4.3°C 67% 6.9 mph N11.1 kmh N 15.0 mph24.1 kmh 30.02 in1016.6 mb - 0.00 in0.0 mm 0.00 in0.0 mm
11:10 AM 50.4°F10.2°C 39.1°F3.9°C 65% 13.8 mph NNW22.2 kmh NNW 19.6 mph31.5 kmh 30.03 in1016.9 mb - 0.00 in0.0 mm 0.00 in0.0 mm
11:20 AM 50.6°F10.3°C 38.5°F3.6°C 63% 10.4 mph NNW16.7 kmh NNW 15.0 mph24.1 kmh 30.04 in1017.3 mb - 0.00 in0.0 mm 0.00 in0.0 mm
11:30 AM 49.9°F9.9°C 38.6°F3.7°C 65% 17.3 mph N27.8 kmh N 27.6 mph44.4 kmh 30.05 in1017.6 mb - 0.00 in0.0 mm 0.00 in0.0 mm
11:40 AM 49.5°F9.7°C 38.2°F3.4°C 65% 13.8 mph N22.2 kmh N 23.0 mph37.0 kmh 30.07 in1018.3 mb - 0.00 in0.0 mm 0.00 in0.0 mm
11:50 AM 49.0°F9.4°C 38.5°F3.6°C 67% 10.4 mph N16.7 kmh N 20.7 mph33.3 kmh 30.07 in1018.3 mb - 0.00 in0.0 mm 0.00 in0.0 mm
12:00 PM 48.6°F9.2°C 38.5°F3.6°C 68% 12.7 mph N20.4 kmh N 20.7 mph33.3 kmh 30.07 in1018.3 mb - 0.00 in0.0 mm 0.00 in0.0 mm
12:10 PM 49.3°F9.6°C 38.5°F3.6°C 66% 11.5 mph NNW18.5 kmh NNW 19.6 mph31.5 kmh 30.08 in1018.6 mb - 0.00 in0.0 mm 0.00 in0.0 mm
12:20 PM 50.4°F10.2°C 37.9°F3.3°C 62% 9.2 mph N14.8 kmh N 15.0 mph24.1 kmh 30.08 in1018.6 mb - 0.00 in0.0 mm 0.00 in0.0 mm
12:30 PM 50.8°F10.4°C 37.4°F3.0°C 60% 11.5 mph NNW18.5 kmh NNW 19.6 mph31.5 kmh 30.08 in1018.6 mb - 0.00 in0.0 mm 0.00 in0.0 mm
12:40 PM 50.8°F10.4°C 37.4°F3.0°C 60% 13.8 mph N22.2 kmh N 17.3 mph27.8 kmh 30.07 in1018.3 mb - 0.00 in0.0 mm 0.00 in0.0 mm
12:50 PM 51.1°F10.6°C 37.7°F3.2°C 60% 11.5 mph N18.5 kmh N 17.3 mph27.8 kmh 30.08 in1018.6 mb - 0.00 in0.0 mm 0.00 in0.0 mm
01:00 PM 51.0°F10.6°C 37.6°F3.1°C 60% 12.7 mph N20.4 kmh N 25.3 mph40.7 kmh 30.08 in1018.6 mb - 0.00 in0.0 mm 0.00 in0.0 mm
01:10 PM 51.3°F10.7°C 37.9°F3.3°C 60% 15.0 mph N24.1 kmh N 28.8 mph46.3 kmh 30.08 in1018.6 mb - 0.00 in0.0 mm 0.00 in0.0 mm
01:20 PM 51.6°F10.9°C 37.2°F2.9°C 58% 10.4 mph N16.7 kmh N 15.0 mph24.1 kmh 30.09 in1019.0 mb - 0.00 in0.0 mm 0.00 in0.0 mm
01:30 PM 51.3°F10.7°C 37.5°F3.1°C 59% 12.7 mph N20.4 kmh N 18.4 mph29.6 kmh 30.09 in1019.0 mb - 0.00 in0.0 mm 0.00 in0.0 mm
01:40 PM 52.3°F11.3°C 37.5°F3.1°C 57% 10.4 mph N16.7 kmh N 16.1 mph25.9 kmh 30.09 in1019.0 mb - 0.00 in0.0 mm 0.00 in0.0 mm
01:50 PM 52.3°F11.3°C 37.1°F2.8°C 56% 13.8 mph N22.2 kmh N 19.6 mph31.5 kmh 30.09 in1019.0 mb - 0.00 in0.0 mm 0.00 in0.0 mm
02:00 PM 52.6°F11.4°C 37.3°F2.9°C 56% 10.4 mph N16.7 kmh N 18.4 mph29.6 kmh 30.09 in1019.0 mb - 0.00 in0.0 mm 0.00 in0.0 mm
02:10 PM 53.0°F11.7°C 37.2°F2.9°C 55% 10.4 mph NNW16.7 kmh NNW 18.4 mph29.6 kmh 30.10 in1019.3 mb - 0.00 in0.0 mm 0.00 in0.0 mm
02:20 PM 54.0°F12.2°C 37.2°F2.9°C 53% 10.4 mph NNW16.7 kmh NNW 17.3 mph27.8 kmh 30.10 in1019.3 mb - 0.00 in0.0 mm 0.00 in0.0 mm
02:30 PM 54.1°F12.3°C 36.8°F2.7°C 52% 8.1 mph N13.0 kmh N 15.0 mph24.1 kmh 30.10 in1019.3 mb - 0.00 in0.0 mm 0.00 in0.0 mm
02:40 PM 54.3°F12.4°C 36.6°F2.6°C 51% 9.2 mph NNW14.8 kmh NNW 15.0 mph24.1 kmh 30.10 in1019.3 mb - 0.00 in0.0 mm 0.00 in0.0 mm
02:50 PM 54.4°F12.4°C 36.6°F2.6°C 51% 8.1 mph N13.0 kmh N 12.7 mph20.4 kmh 30.10 in1019.3 mb - 0.00 in0.0 mm 0.00 in0.0 mm
03:00 PM 54.9°F12.7°C 37.1°F2.8°C 51% 6.9 mph NNW11.1 kmh NNW 9.2 mph14.8 kmh 30.10 in1019.3 mb - 0.00 in0.0 mm 0.00 in0.0 mm
03:10 PM 55.7°F13.2°C 36.3°F2.4°C 48% 8.1 mph NNW13.0 kmh NNW 11.5 mph18.5 kmh 30.11 in1019.6 mb - 0.00 in0.0 mm 0.00 in0.0 mm
03:20 PM 55.4°F13.0°C 35.5°F1.9°C 47% 11.5 mph NNW18.5 kmh NNW 15.0 mph24.1 kmh 30.11 in1019.6 mb - 0.00 in0.0 mm 0.00 in0.0 mm
03:30 PM 55.7°F13.2°C 36.3°F2.4°C 48% 8.1 mph NW13.0 kmh NW 13.8 mph22.2 kmh 30.11 in1019.6 mb - 0.00 in0.0 mm 0.00 in0.0 mm
03:40 PM 55.5°F13.1°C 35.6°F2.0°C 47% 10.4 mph NNW16.7 kmh NNW 16.1 mph25.9 kmh 30.11 in1019.6 mb - 0.00 in0.0 mm 0.00 in0.0 mm
03:50 PM 56.4°F13.6°C 35.9°F2.2°C 46% 8.1 mph N13.0 kmh N 12.7 mph20.4 kmh 30.12 in1020.0 mb - 0.00 in0.0 mm 0.00 in0.0 mm
04:00 PM 56.9°F13.8°C 36.3°F2.4°C 46% 10.4 mph NNW16.7 kmh NNW 13.8 mph22.2 kmh 30.12 in1020.0 mb - 0.00 in0.0 mm 0.00 in0.0 mm
04:10 PM 56.3°F13.5°C 35.8°F2.1°C 46% 3.5 mph N5.6 kmh N 10.4 mph16.7 kmh 30.12 in1020.0 mb - 0.00 in0.0 mm 0.00 in0.0 mm
04:20 PM 56.5°F13.6°C 35.9°F2.2°C 46% 9.2 mph NNW14.8 kmh NNW 10.4 mph16.7 kmh 30.12 in1020.0 mb - 0.00 in0.0 mm 0.00 in0.0 mm
04:30 PM 56.2°F13.4°C 35.7°F2.1°C 46% 8.1 mph N13.0 kmh N 11.5 mph18.5 kmh 30.12 in1020.0 mb - 0.00 in0.0 mm 0.00 in0.0 mm
04:40 PM 55.8°F13.2°C 35.9°F2.2°C 47% 8.1 mph NW13.0 kmh NW 12.7 mph20.4 kmh 30.13 in1020.3 mb - 0.00 in0.0 mm 0.00 in0.0 mm
04:50 PM 55.7°F13.2°C 35.8°F2.1°C 47% 2.3 mph NNW3.7 kmh NNW 3.5 mph5.6 kmh 30.13 in1020.3 mb - 0.00 in0.0 mm 0.00 in0.0 mm
05:00 PM 55.5°F13.1°C 36.1°F2.3°C 48% 2.3 mph NNW3.7 kmh NNW 4.6 mph7.4 kmh 30.14 in1020.7 mb - 0.00 in0.0 mm 0.00 in0.0 mm
05:10 PM 55.2°F12.9°C 35.8°F2.1°C 48% 4.6 mph N7.4 kmh N 3.5 mph5.6 kmh 30.14 in1020.7 mb - 0.00 in0.0 mm 0.00 in0.0 mm
05:20 PM 54.9°F12.7°C 35.6°F2.0°C 48% 2.3 mph NW3.7 kmh NW 3.5 mph5.6 kmh 30.14 in1020.7 mb - 0.00 in0.0 mm 0.00 in0.0 mm
05:30 PM 54.5°F12.5°C 35.2°F1.8°C 48% 4.6 mph NNW7.4 kmh NNW 8.1 mph13.0 kmh 30.15 in1021.0 mb - 0.00 in0.0 mm 0.00 in0.0 mm
05:40 PM 54.2°F12.3°C 34.9°F1.6°C 48% 4.6 mph NNW7.4 kmh NNW 9.2 mph14.8 kmh 30.16 in1021.3 mb - 0.00 in0.0 mm 0.00 in0.0 mm
05:50 PM 53.9°F12.2°C 34.1°F1.2°C 47% 4.6 mph NNW7.4 kmh NNW 9.2 mph14.8 kmh 30.16 in1021.3 mb - 0.00 in0.0 mm 0.00 in0.0 mm
06:00 PM 53.5°F11.9°C 33.7°F0.9°C 47% 4.6 mph NNW7.4 kmh NNW 8.1 mph13.0 kmh 30.17 in1021.7 mb - 0.00 in0.0 mm 0.00 in0.0 mm
06:10 PM 53.3°F11.8°C 33.6°F0.9°C 47% 2.3 mph NNW3.7 kmh NNW 4.6 mph7.4 kmh 30.17 in1021.7 mb - 0.00 in0.0 mm 0.00 in0.0 mm
06:20 PM 53.0°F11.7°C 32.8°F0.4°C 46% 5.8 mph NNW9.3 kmh NNW 5.8 mph9.3 kmh 30.18 in1022.0 mb - 0.00 in0.0 mm 0.00 in0.0 mm
06:30 PM 52.7°F11.5°C 33.0°F0.6°C 47% 3.5 mph NW5.6 kmh NW 5.8 mph9.3 kmh 30.18 in1022.0 mb - 0.00 in0.0 mm 0.00 in0.0 mm
06:40 PM 52.3°F11.3°C 32.6°F0.3°C 47% 3.5 mph NW5.6 kmh NW 5.8 mph9.3 kmh 30.18 in1022.0 mb - 0.00 in0.0 mm 0.00 in0.0 mm
06:50 PM 51.8°F11.0°C 32.2°F0.1°C 47% 3.5 mph NW5.6 kmh NW 8.1 mph13.0 kmh 30.19 in1022.4 mb - 0.00 in0.0 mm 0.00 in0.0 mm
07:00 PM 51.4°F10.8°C 31.8°F-0.1°C 47% 2.3 mph NNW3.7 kmh NNW 4.6 mph7.4 kmh 30.19 in1022.4 mb - 0.00 in0.0 mm 0.00 in0.0 mm
07:10 PM 50.9°F10.5°C 31.9°F-0.1°C 48% 3.5 mph NNW5.6 kmh NNW 9.2 mph14.8 kmh 30.20 in1022.7 mb - 0.00 in0.0 mm 0.00 in0.0 mm
07:20 PM 50.6°F10.3°C 31.6°F-0.2°C 48% 3.5 mph NW5.6 kmh NW 3.5 mph5.6 kmh 30.20 in1022.7 mb - 0.00 in0.0 mm 0.00 in0.0 mm
07:30 PM 50.2°F10.1°C 31.8°F-0.1°C 49% 2.3 mph NW3.7 kmh NW 3.5 mph5.6 kmh 30.21 in1023.0 mb - 0.00 in0.0 mm 0.00 in0.0 mm
07:40 PM 49.5°F9.7°C 31.6°F-0.2°C 50% 1.2 mph NNW1.9 kmh NNW 2.3 mph3.7 kmh 30.22 in1023.4 mb - 0.00 in0.0 mm 0.00 in0.0 mm
07:50 PM 48.8°F9.3°C 31.9°F-0.1°C 52% 1.2 mph NNW1.9 kmh NNW 3.5 mph5.6 kmh 30.22 in1023.4 mb - 0.00 in0.0 mm 0.00 in0.0 mm
08:00 PM 48.2°F9.0°C 31.4°F-0.3°C 52% Calm Calm 1.2 mph1.9 kmh 30.23 in1023.7 mb - 0.00 in0.0 mm 0.00 in0.0 mm
08:10 PM 47.9°F8.8°C 31.1°F-0.5°C 52% 2.3 mph NNW3.7 kmh NNW 3.5 mph5.6 kmh 30.23 in1023.7 mb - 0.00 in0.0 mm 0.00 in0.0 mm
08:20 PM 47.6°F8.7°C 30.8°F-0.7°C 52% Calm Calm -- 30.23 in1023.7 mb - 0.00 in0.0 mm 0.00 in0.0 mm
08:30 PM 46.9°F8.3°C 30.7°F-0.7°C 53% Calm Calm 1.2 mph1.9 kmh 30.23 in1023.7 mb - 0.00 in0.0 mm 0.00 in0.0 mm
08:40 PM 46.5°F8.1°C 30.3°F-0.9°C 53% Calm Calm -- 30.24 in1024.0 mb - 0.00 in0.0 mm 0.00 in0.0 mm
08:50 PM 46.0°F7.8°C 30.3°F-0.9°C 54% Calm Calm -- 30.24 in1024.0 mb - 0.00 in0.0 mm 0.00 in0.0 mm
09:00 PM 45.3°F7.4°C 30.0°F-1.1°C 55% Calm Calm -- 30.24 in1024.0 mb - 0.00 in0.0 mm 0.00 in0.0 mm
09:10 PM 44.7°F7.1°C 30.0°F-1.1°C 56% Calm Calm 2.3 mph3.7 kmh 30.24 in1024.0 mb - 0.00 in0.0 mm 0.00 in0.0 mm
09:20 PM 44.9°F7.2°C 30.1°F-1.1°C 56% Calm Calm 1.2 mph1.9 kmh 30.25 in1024.4 mb - 0.00 in0.0 mm 0.00 in0.0 mm
09:30 PM 44.9°F7.2°C 30.1°F-1.1°C 56% Calm Calm -- 30.26 in1024.7 mb - 0.00 in0.0 mm 0.00 in0.0 mm
09:40 PM 44.4°F6.9°C 30.1°F-1.1°C 57% Calm Calm 2.3 mph3.7 kmh 30.26 in1024.7 mb - 0.00 in0.0 mm 0.00 in0.0 mm
09:50 PM 44.2°F6.8°C 29.9°F-1.2°C 57% Calm Calm -- 30.26 in1024.7 mb - 0.00 in0.0 mm 0.00 in0.0 mm
10:00 PM 44.0°F6.7°C 29.7°F-1.3°C 57% Calm Calm 1.2 mph1.9 kmh 30.27 in1025.1 mb - 0.00 in0.0 mm 0.00 in0.0 mm
10:10 PM 43.6°F6.4°C 29.8°F-1.2°C 58% Calm Calm -- 30.27 in1025.1 mb - 0.00 in0.0 mm 0.00 in0.0 mm
10:20 PM 43.2°F6.2°C 29.4°F-1.4°C 58% Calm Calm -- 30.27 in1025.1 mb - 0.00 in0.0 mm 0.00 in0.0 mm
10:30 PM 42.7°F5.9°C 29.3°F-1.5°C 59% Calm Calm -- 30.27 in1025.1 mb - 0.00 in0.0 mm 0.00 in0.0 mm
10:40 PM 42.0°F5.6°C 29.5°F-1.4°C 61% Calm Calm -- 30.27 in1025.1 mb - 0.00 in0.0 mm 0.00 in0.0 mm
10:50 PM 41.6°F5.3°C 29.5°F-1.4°C 62% Calm Calm -- 30.27 in1025.1 mb - 0.00 in0.0 mm 0.00 in0.0 mm
11:00 PM 41.4°F5.2°C 29.3°F-1.5°C 62% Calm Calm -- 30.27 in1025.1 mb - 0.00 in0.0 mm 0.00 in0.0 mm
11:10 PM 41.2°F5.1°C 29.1°F-1.6°C 62% Calm Calm -- 30.27 in1025.1 mb - 0.00 in0.0 mm 0.00 in0.0 mm
11:20 PM 40.8°F4.9°C 28.8°F-1.8°C 62% Calm Calm -- 30.28 in1025.4 mb - 0.00 in0.0 mm 0.00 in0.0 mm
11:30 PM 40.5°F4.7°C 28.9°F-1.7°C 63% Calm Calm -- 30.28 in1025.4 mb - 0.00 in0.0 mm 0.00 in0.0 mm
11:40 PM 40.2°F4.6°C 28.6°F-1.9°C 63% Calm Calm -- 30.28 in1025.4 mb - 0.00 in0.0 mm 0.00 in0.0 mm
11:50 PM 39.9°F4.4°C 28.7°F-1.8°C 64% Calm Calm -- 30.28 in1025.4 mb - 0.00 in0.0 mm 0.00 in0.0 mm